Time;durP1;ratioP1;P1;durP2;ratioP2;P2;SDS_P1;SDS_P2;PMS_P1;PMS_P2;Temp;Humidity;BMP_temperature;BMP_pressure;BME280_temperature;BME280_humidity;BME280_pressure;Samples;Min_cycle;Max_cycle;Signal;HPM_P1;HPM_P2
2023/05/31 00:01:55;;;;;;;6.10;5.50;;;;;;;-143.84;60.01;45098.56;4992250;28;20453;-64
2023/05/31 00:04:22;;;;;;;10.47;4.83;;;;;;;-143.84;59.47;45098.56;4992119;28;20496;-64
2023/05/31 00:06:49;;;;;;;5.70;5.20;;;;;;;-143.84;59.40;45111.91;4992196;28;20435;-64
2023/05/31 00:09:18;;;;;;;6.47;5.70;;;;;;;-143.84;59.20;45119.53;4992193;28;20505;-64
2023/05/31 00:11:45;;;;;;;13.03;6.17;;;;;;;-143.84;59.28;45100.47;4992255;28;20514;-64
2023/05/31 00:14:12;;;;;;;7.37;6.00;;;;;;;-143.84;59.18;45127.13;4992511;28;20522;-64
2023/05/31 00:16:39;;;;;;;7.20;5.90;;;;;;;-143.84;59.64;45102.38;4992260;28;20472;-64
2023/05/31 00:19:06;;;;;;;4.97;4.50;;;;;;;-143.84;59.56;45125.22;4992017;28;20884;-64
2023/05/31 00:21:33;;;;;;;7.47;6.03;;;;;;;-143.84;59.75;45123.34;4991912;28;21012;-64
2023/05/31 00:24:00;;;;;;;16.97;5.50;;;;;;;-143.84;59.79;45134.75;4992017;28;20485;-64
2023/05/31 00:26:29;;;;;;;5.80;5.30;;;;;;;-143.84;59.56;45125.22;4991335;28;20437;-64
2023/05/31 00:28:56;;;;;;;7.37;5.30;;;;;;;-143.84;59.63;45096.66;4992047;28;20881;-64
2023/05/31 00:31:23;;;;;;;8.10;5.10;;;;;;;-143.84;59.79;45085.25;4992044;28;20527;-64
2023/05/31 00:33:50;;;;;;;6.27;5.53;;;;;;;-143.84;59.84;45108.09;4991768;28;20598;-64
2023/05/31 00:36:17;;;;;;;9.23;5.00;;;;;;;-143.84;60.23;45117.63;4991960;28;20528;-64
2023/05/31 00:38:44;;;;;;;6.13;5.63;;;;;;;-143.84;60.36;45123.34;4991675;28;20449;-64
2023/05/31 00:41:12;;;;;;;8.60;5.77;;;;;;;-143.84;60.44;45144.28;4991671;28;20455;-64
2023/05/31 00:43:40;;;;;;;6.50;5.73;;;;;;;-143.84;60.88;45117.63;4991650;28;20952;-64
2023/05/31 00:46:11;;;;;;;8.27;6.40;;;;;;;-143.84;61.59;45100.47;4991546;28;20449;-64
2023/05/31 00:48:40;;;;;;;12.10;5.87;;;;;;;-143.84;62.08;45096.66;4991878;28;20490;-64
2023/05/31 00:51:07;;;;;;;6.57;5.97;;;;;;;-143.84;62.39;45111.91;4991415;28;20546;-64
2023/05/31 00:53:34;;;;;;;10.57;5.43;;;;;;;-143.84;62.68;45121.44;4991568;28;20441;-64
2023/05/31 00:56:02;;;;;;;8.27;5.93;;;;;;;-143.84;63.19;45100.47;4991293;28;20445;-64
2023/05/31 00:58:30;;;;;;;6.50;5.90;;;;;;;-143.84;63.03;45136.66;4991434;28;20452;-64
2023/05/31 01:00:59;;;;;;;9.30;6.17;;;;;;;-143.84;63.16;45108.09;4991636;28;20452;-64
2023/05/31 01:03:26;;;;;;;14.80;6.50;;;;;;;-143.84;63.08;45098.56;4991558;28;20460;-64
2023/05/31 01:05:53;;;;;;;8.10;5.77;;;;;;;-143.84;63.08;45089.06;4991148;28;20577;-64
2023/05/31 01:08:21;;;;;;;9.77;5.60;;;;;;;-143.84;63.34;45085.25;4991544;28;20445;-64
2023/05/31 01:10:53;;;;;;;8.00;5.63;;;;;;;-143.84;63.46;45115.72;4991260;28;20441;-64
2023/05/31 01:13:28;;;;;;;9.53;5.17;;;;;;;-143.84;63.79;45106.19;4991124;28;20460;-64
2023/05/31 01:16:02;;;;;;;6.97;6.23;;;;;;;-143.84;63.94;45100.47;4991121;28;20499;-64
2023/05/31 01:18:37;;;;;;;9.53;6.00;;;;;;;-143.84;64.13;45098.56;4991257;28;20504;-64
2023/05/31 01:21:07;;;;;;;6.23;5.63;;;;;;;-143.84;64.05;45110.00;4990972;28;20918;-64
2023/05/31 01:24:00;;;;;;;11.60;5.83;;;;;;;-143.84;64.63;45102.38;4990655;28;20441;-64
2023/05/31 01:26:38;;;;;;;17.03;6.57;;;;;;;-143.84;64.95;45129.03;4990714;28;20445;-64
2023/05/31 01:29:08;;;;;;;6.93;6.23;;;;;;;-143.84;65.22;45102.38;4990730;28;20445;-64
2023/05/31 01:31:37;;;;;;;7.23;5.70;;;;;;;-143.84;65.67;45098.56;4990664;28;20445;-64
2023/05/31 01:34:06;;;;;;;11.00;6.40;;;;;;;-143.84;66.17;45113.81;4990540;28;20445;-64
2023/05/31 01:36:33;;;;;;;7.40;6.70;;;;;;;-143.84;66.52;45096.66;4990971;28;20448;-64
2023/05/31 01:39:02;;;;;;;7.13;5.90;;;;;;;-143.84;67.04;45127.13;4990781;28;20444;-64
2023/05/31 01:41:31;;;;;;;7.70;6.50;;;;;;;-143.84;67.19;45102.38;4981413;28;20476;-64
2023/05/31 01:44:01;;;;;;;7.20;5.60;;;;;;;-143.84;67.61;45102.38;4971037;28;20493;-64
2023/05/31 01:46:29;;;;;;;7.63;6.40;;;;;;;-143.84;68.30;45113.81;4971238;28;20452;-64
2023/05/31 01:48:56;;;;;;;9.20;5.90;;;;;;;-143.84;68.86;45102.38;4971233;28;20446;-64
2023/05/31 01:51:24;;;;;;;6.40;5.50;;;;;;;-143.84;69.37;45092.88;4971185;28;20989;-64
2023/05/31 01:53:51;;;;;;;8.13;6.70;;;;;;;-143.84;69.75;45110.00;4970855;28;20445;-64
2023/05/31 01:56:21;;;;;;;7.20;6.50;;;;;;;-143.84;70.37;45127.13;4970792;28;20955;-64
2023/05/31 01:58:51;;;;;;;7.00;6.03;;;;;;;-143.84;70.88;45125.22;4970853;28;20499;-64
2023/05/31 02:01:21;;;;;;;11.33;5.17;;;;;;;-143.84;71.21;45129.03;4971158;28;20515;-64
2023/05/31 02:03:50;;;;;;;12.67;6.70;;;;;;;-143.84;71.64;45092.88;4983387;28;20517;-64
2023/05/31 02:06:18;;;;;;;6.73;6.10;;;;;;;-143.84;71.68;45108.09;4990153;28;20491;-64
2023/05/31 02:08:45;;;;;;;12.27;6.67;;;;;;;-143.84;72.08;45142.38;4990226;28;20459;-64
2023/05/31 02:11:13;;;;;;;20.83;6.67;;;;;;;-143.84;72.29;45087.16;4990083;28;20447;-64
2023/05/31 02:13:40;;;;;;;8.17;5.97;;;;;;;-143.84;72.42;45106.19;4990057;28;20535;-64
2023/05/31 02:16:07;;;;;;;14.43;6.20;;;;;;;-143.84;72.47;45100.47;4989957;28;20455;-64
2023/05/31 02:18:36;;;;;;;13.33;6.50;;;;;;;-143.84;72.71;45096.66;4989965;28;20489;-64
2023/05/31 02:21:05;;;;;;;12.07;6.70;;;;;;;-143.84;72.70;45104.28;4989846;28;20449;-64
2023/05/31 02:23:33;;;;;;;14.63;6.60;;;;;;;-143.84;72.71;45089.06;4989699;28;20480;-64
2023/05/31 02:26:00;;;;;;;9.20;6.73;;;;;;;-143.84;72.76;45102.38;4989509;28;20490;-65
2023/05/31 02:28:27;;;;;;;8.77;7.03;;;;;;;-143.84;73.04;45100.47;4990218;28;20445;-64
2023/05/31 02:30:55;;;;;;;14.50;7.40;;;;;;;-143.84;73.42;45104.28;4989902;28;20444;-64
2023/05/31 02:33:22;;;;;;;10.93;6.93;;;;;;;-143.84;73.68;45106.19;4990108;28;21196;-64
2023/05/31 02:35:51;;;;;;;11.43;6.60;;;;;;;-143.84;73.76;45096.66;4990089;28;20454;-64
2023/05/31 02:38:20;;;;;;;10.43;6.47;;;;;;;-143.84;74.08;45071.91;4989732;28;20444;-63
2023/05/31 02:40:47;;;;;;;10.80;7.47;;;;;;;-143.84;74.22;45108.09;4989532;28;20451;-63
2023/05/31 02:43:14;;;;;;;11.47;6.90;;;;;;;-143.84;74.28;45098.56;4989763;28;20452;-63
2023/05/31 02:45:42;;;;;;;8.60;7.00;;;;;;;-143.84;74.24;45087.16;4989231;28;20495;-63
2023/05/31 02:48:09;;;;;;;7.80;6.97;;;;;;;-143.84;74.16;45110.00;4989517;28;20455;-64
2023/05/31 02:50:36;;;;;;;9.57;6.50;;;;;;;-143.84;73.94;45110.00;4989290;28;20977;-63
2023/05/31 02:53:05;;;;;;;6.80;6.10;;;;;;;-143.84;73.73;45111.91;4989440;28;20849;-63
2023/05/31 02:55:32;;;;;;;16.83;6.80;;;;;;;-143.84;73.50;45094.78;4989079;28;20449;-63
2023/05/31 02:58:00;;;;;;;9.83;8.00;;;;;;;-143.84;73.30;45111.91;4989585;28;20530;-63
2023/05/31 03:00:27;;;;;;;10.33;7.03;;;;;;;-143.84;73.10;45098.56;4989456;28;20875;-63
2023/05/31 03:02:54;;;;;;;8.90;6.63;;;;;;;-143.84;72.85;45100.47;4989446;28;21110;-63
2023/05/31 03:05:23;;;;;;;10.23;6.60;;;;;;;-143.84;72.65;45100.47;4989385;28;20498;-63
2023/05/31 03:07:50;;;;;;;8.57;5.60;;;;;;;-143.84;72.32;45121.44;4989244;28;20457;-63
2023/05/31 03:10:18;;;;;;;9.57;6.30;;;;;;;-143.84;72.25;45104.28;4975751;28;20463;-63
2023/05/31 03:12:45;;;;;;;10.33;6.13;;;;;;;-143.84;71.84;45104.28;4970014;28;20884;-63
2023/05/31 03:15:13;;;;;;;12.43;6.10;;;;;;;-143.84;71.88;45106.19;4969975;28;20448;-63
2023/05/31 03:17:40;;;;;;;7.67;6.93;;;;;;;-143.84;71.69;45113.81;4969917;28;20483;-64
2023/05/31 03:20:09;;;;;;;9.13;6.73;;;;;;;-143.84;71.25;45117.63;4969855;28;21017;-64
2023/05/31 03:22:36;;;;;;;10.07;6.50;;;;;;;-143.84;70.14;45110.00;4969601;28;20444;-64
2023/05/31 03:25:03;;;;;;;12.73;6.20;;;;;;;-143.84;70.26;45104.28;4969751;28;20558;-64
2023/05/31 03:27:32;;;;;;;13.43;6.37;;;;;;;-143.84;68.70;45098.56;4970155;28;20436;-56
2023/05/31 03:30:01;;;;;;;9.70;6.23;;;;;;;-143.84;67.95;45121.44;4973074;28;21018;-55
2023/05/31 03:32:28;;;;;;;7.47;5.93;;;;;;;-143.84;65.09;45106.19;4970254;28;20445;-55
2023/05/31 03:34:55;;;;;;;11.53;7.00;;;;;;;-143.84;61.73;45090.97;4970490;28;20445;-56
2023/05/31 03:37:22;;;;;;;16.97;5.67;;;;;;;-143.84;58.20;45064.31;4970822;28;20441;-56
2023/05/31 03:39:50;;;;;;;10.77;7.13;;;;;;;-143.84;55.23;45071.91;4970735;28;20853;-56
2023/05/31 03:42:17;;;;;;;6.93;6.00;;;;;;;-143.84;53.95;45075.72;4970605;28;20457;-56
2023/05/31 03:44:45;;;;;;;13.57;5.40;;;;;;;-143.84;51.19;45089.06;4983378;28;20456;-53
2023/05/31 03:47:12;;;;;;;13.33;6.00;;;;;;;-143.84;50.58;45079.53;4989676;28;20445;-53
2023/05/31 03:49:40;;;;;;;6.13;5.63;;;;;;;-143.84;49.77;45066.22;4989643;28;20500;-53
2023/05/31 03:52:08;;;;;;;7.67;5.80;;;;;;;-143.84;48.59;45043.34;4989677;28;20461;-53
2023/05/31 03:54:36;;;;;;;13.77;5.40;;;;;;;-143.84;47.71;45041.44;4989474;28;20447;-53
2023/05/31 03:57:04;;;;;;;5.67;5.23;;;;;;;-143.84;46.80;45045.25;4989477;28;20454;-53
2023/05/31 03:59:31;;;;;;;7.80;5.90;;;;;;;-143.84;46.66;45037.66;4989186;28;20450;-53
2023/05/31 04:02:00;;;;;;;8.87;5.30;;;;;;;-143.84;46.06;45035.75;4990981;28;20471;-53
2023/05/31 04:04:27;;;;;;;7.90;5.10;;;;;;;-143.84;45.98;45052.88;4988266;28;20557;-53
2023/05/31 04:06:54;;;;;;;13.07;5.40;;;;;;;-143.84;45.77;45037.66;4992633;28;20542;-53
2023/05/31 04:09:23;;;;;;;13.33;5.70;;;;;;;-143.84;44.80;45035.75;4992898;28;20472;-53
2023/05/31 04:11:50;;;;;;;5.53;5.00;;;;;;;-143.84;44.50;45028.13;4992563;28;20443;-53
2023/05/31 04:14:18;;;;;;;6.17;5.20;;;;;;;-143.84;44.53;45037.66;4992827;28;20884;-53
2023/05/31 04:16:45;;;;;;;17.10;4.77;;;;;;;-143.84;44.33;45068.13;4992972;28;20518;-53
2023/05/31 04:19:13;;;;;;;9.60;5.20;;;;;;;-143.84;44.14;45049.06;4992637;28;20531;-53
2023/05/31 04:21:40;;;;;;;5.87;5.23;;;;;;;-143.84;44.07;45022.41;4992330;28;20452;-53
2023/05/31 04:24:08;;;;;;;7.33;5.70;;;;;;;-143.84;43.69;45031.94;4992559;28;20932;-52
2023/05/31 04:26:35;;;;;;;17.33;5.50;;;;;;;-143.84;43.59;45026.22;4992335;28;20827;-52
2023/05/31 04:29:03;;;;;;;6.63;5.57;;;;;;;-143.84;43.45;45050.97;4992418;28;20443;-52
2023/05/31 04:31:31;;;;;;;9.83;4.90;;;;;;;-143.84;43.47;45045.25;4992443;28;20437;-53
2023/05/31 04:33:59;;;;;;;9.37;5.17;;;;;;;-143.84;42.94;45041.44;4992209;28;21065;-53
2023/05/31 04:36:28;;;;;;;12.33;5.30;;;;;;;-143.84;42.83;45050.97;4992124;28;20979;-53
2023/05/31 04:38:56;;;;;;;6.83;4.53;;;;;;;-143.84;42.54;45033.84;4992260;28;20445;-53
2023/05/31 04:41:26;;;;;;;9.20;4.70;;;;;;;-143.84;42.51;45033.84;4992021;28;20450;-53
2023/05/31 04:43:54;;;;;;;7.87;5.63;;;;;;;-143.84;41.94;45030.03;4992296;28;20437;-53
2023/05/31 04:46:22;;;;;;;4.87;4.27;;;;;;;-143.84;41.69;45014.78;4992367;28;21141;-53
2023/05/31 04:48:49;;;;;;;6.80;4.53;;;;;;;-143.84;41.85;45010.97;4992392;28;20454;-53
2023/05/31 04:51:17;;;;;;;8.63;4.23;;;;;;;-143.84;41.48;45031.94;4992009;28;20569;-53
2023/05/31 04:53:47;;;;;;;8.07;4.50;;;;;;;-143.84;41.14;45007.19;4992182;28;20438;-53
2023/05/31 04:56:14;;;;;;;8.90;5.00;;;;;;;-143.84;41.01;45018.59;4986725;28;20451;-54
2023/05/31 04:58:42;;;;;;;16.20;13.10;;;;;;;-143.84;40.89;45009.09;4972191;28;20443;-53
2023/05/31 05:01:09;;;;;;;14.60;12.43;;;;;;;-143.84;40.49;45007.19;4972486;28;20442;-53
2023/05/31 05:03:36;;;;;;;10.27;6.07;;;;;;;-143.84;39.63;45018.59;4972344;28;20438;-54
2023/05/31 05:06:13;;;;;;;6.07;4.40;;;;;;;-143.84;39.81;45010.97;4991514;28;21054;-53
2023/05/31 05:08:40;;;;;;;10.03;4.20;;;;;;;-143.84;39.32;45033.84;4991613;28;20628;-53
2023/05/31 05:11:09;;;;;;;8.20;4.63;;;;;;;-143.84;39.08;44995.75;4991190;28;20441;-53
2023/05/31 05:13:36;;;;;;;6.70;4.80;;;;;;;-143.84;38.89;45022.41;4991114;28;20533;-53
2023/05/31 05:16:03;;;;;;;7.20;4.50;;;;;;;-143.84;38.87;44999.56;4991242;28;20437;-53
2023/05/31 05:18:30;;;;;;;5.43;4.43;;;;;;;-143.84;38.34;44982.41;4991470;28;20451;-53
2023/05/31 05:20:58;;;;;;;7.37;4.27;;;;;;;-143.84;38.41;44991.94;4991085;28;20444;-53
2023/05/31 05:23:25;;;;;;;8.40;4.37;;;;;;;-143.84;38.18;44969.09;4991053;28;20993;-53
2023/05/31 05:25:52;;;;;;;6.53;4.90;;;;;;;-143.84;38.11;44986.22;4990644;28;20488;-53
2023/05/31 05:28:22;;;;;;;6.47;3.80;;;;;;;-143.84;38.09;45005.28;4991153;28;20448;-53
2023/05/31 05:30:49;;;;;;;10.33;4.63;;;;;;;-143.84;37.79;44976.72;4991338;28;21186;-53
2023/05/31 05:33:16;;;;;;;12.63;3.30;;;;;;;-143.84;37.19;44999.56;4991153;28;20444;-53
2023/05/31 05:35:43;;;;;;;5.60;3.77;;;;;;;-143.84;37.11;44969.09;4991199;28;21477;-53
2023/05/31 05:38:10;;;;;;;7.90;4.40;;;;;;;-143.84;36.77;44990.03;4991236;28;20551;-53
2023/05/31 05:40:37;;;;;;;5.87;3.77;;;;;;;-143.84;36.12;44976.72;4990815;28;21364;-53
2023/05/31 05:43:05;;;;;;;4.87;4.07;;;;;;;-143.84;35.59;44972.91;4990969;28;20507;-53
2023/05/31 05:45:34;;;;;;;4.27;3.87;;;;;;;-143.84;35.65;44946.25;4990668;28;20479;-53
2023/05/31 05:48:01;;;;;;;5.53;4.10;;;;;;;-143.84;36.16;44971.00;4990427;28;20459;-53
2023/05/31 05:50:28;;;;;;;8.50;4.00;;;;;;;-143.84;36.06;44982.41;4991005;28;20789;-53
2023/05/31 05:52:55;;;;;;;5.13;3.70;;;;;;;-143.84;35.72;44971.00;4990786;28;20444;-53
2023/05/31 05:55:22;;;;;;;4.70;4.27;;;;;;;-143.84;36.58;44978.63;4990356;28;20460;-53
2023/05/31 05:57:51;;;;;;;11.43;4.47;;;;;;;-143.84;35.42;44953.88;4990597;28;20632;-53
2023/05/31 06:00:19;;;;;;;6.23;3.70;;;;;;;-143.84;35.98;44942.44;4990285;28;20820;-54
2023/05/31 06:02:47;;;;;;;5.87;3.50;;;;;;;-143.84;33.54;44950.06;4990252;28;20535;-53
2023/05/31 06:05:15;;;;;;;7.43;3.70;;;;;;;-143.84;34.28;44955.75;4990330;28;20485;-53
2023/05/31 06:07:42;;;;;;;6.33;3.27;;;;;;;-143.84;33.46;44919.59;4990350;28;20492;-53
2023/05/31 06:10:10;;;;;;;6.43;3.23;;;;;;;-143.84;33.00;44946.25;4990199;28;20452;-53
2023/05/31 06:12:37;;;;;;;4.07;3.37;;;;;;;-143.84;32.71;44950.06;4990398;28;20437;-53
2023/05/31 06:15:05;;;;;;;4.60;3.53;;;;;;;-143.84;32.77;44923.41;4990196;28;20464;-53
2023/05/31 06:17:32;;;;;;;5.13;4.03;;;;;;;-143.84;33.14;44917.69;4989994;28;21074;-53
2023/05/31 06:20:00;;;;;;;7.27;3.70;;;;;;;-143.84;31.81;44946.25;4990338;28;20457;-54
2023/05/31 06:22:27;;;;;;;4.80;3.53;;;;;;;-143.84;31.96;44919.59;4990231;28;20436;-53
2023/05/31 06:24:57;;;;;;;5.97;3.60;;;;;;;-143.84;31.96;44911.97;4989401;28;20445;-53
2023/05/31 06:27:25;;;;;;;6.27;3.17;;;;;;;-143.84;31.95;44900.53;4990151;28;20539;-53
2023/05/31 06:29:57;;;;;;;6.50;3.17;;;;;;;-143.84;29.95;44923.41;4989834;28;21031;-53
2023/05/31 06:32:25;;;;;;;4.87;3.40;;;;;;;-143.84;29.92;44892.94;4990562;28;20477;-53
2023/05/31 06:34:52;;;;;;;6.97;3.20;;;;;;;-143.84;30.31;44906.25;4990008;28;20499;-53
2023/05/31 06:37:21;;;;;;;8.53;3.60;;;;;;;-143.84;30.64;44892.94;4990065;28;20556;-53
2023/05/31 06:39:48;;;;;;;3.47;3.23;;;;;;;-143.84;31.75;44896.75;4989657;28;20462;-53
2023/05/31 06:42:15;;;;;;;5.37;3.40;;;;;;;-143.84;31.31;44904.34;4989908;28;20441;-53
2023/05/31 06:44:43;;;;;;;5.83;3.03;;;;;;;-143.84;29.08;44883.41;4989798;28;20511;-53
2023/05/31 06:47:10;;;;;;;9.80;3.10;;;;;;;-143.84;29.22;44894.84;4989834;28;20492;-53
2023/05/31 06:49:37;;;;;;;2.90;2.70;;;;;;;-143.84;28.64;44870.09;4989659;28;20507;-53
2023/05/31 06:52:05;;;;;;;4.93;2.60;;;;;;;-143.84;28.56;44868.19;4989818;28;20928;-53
2023/05/31 06:54:36;;;;;;;6.20;2.60;;;;;;;-143.84;28.70;44885.31;4989769;28;20491;-53
2023/05/31 06:57:03;;;;;;;7.03;3.40;;;;;;;-143.84;28.73;44871.97;4989698;28;20445;-53
2023/05/31 06:59:31;;;;;;;7.80;2.80;;;;;;;-143.84;28.36;44873.88;4989779;28;20495;-53
2023/05/31 07:01:58;;;;;;;6.50;3.77;;;;;;;-143.84;27.92;44894.84;4989743;28;20932;-53
2023/05/31 07:04:25;;;;;;;3.13;2.93;;;;;;;-143.84;28.28;44879.59;4989218;28;20534;-53
2023/05/31 07:06:52;;;;;;;9.50;3.60;;;;;;;-143.84;28.73;44889.13;4989246;28;20543;-53
2023/05/31 07:09:19;;;;;;;11.60;3.07;;;;;;;-143.84;28.02;44868.19;4989595;28;20500;-53
2023/05/31 07:11:48;;;;;;;16.40;3.80;;;;;;;-143.84;26.19;44873.88;4989261;28;20452;-53
2023/05/31 07:14:15;;;;;;;7.30;3.10;;;;;;;-143.84;26.34;44892.94;4989586;28;20456;-53
2023/05/31 07:16:42;;;;;;;6.00;2.77;;;;;;;-143.84;26.68;44892.94;4989624;28;20428;-53
2023/05/31 07:19:09;;;;;;;6.83;3.10;;;;;;;-143.84;26.41;44887.22;4989476;28;20488;-53
2023/05/31 07:21:37;;;;;;;5.93;3.27;;;;;;;-143.84;27.00;44892.94;4989346;28;20453;-53
2023/05/31 07:24:04;;;;;;;4.83;2.93;;;;;;;-143.84;26.50;44911.97;4989321;28;20511;-53
2023/05/31 07:26:31;;;;;;;3.53;3.03;;;;;;;-143.84;27.62;44887.22;4989664;28;20590;-53
2023/05/31 07:29:00;;;;;;;8.27;3.17;;;;;;;-143.84;25.60;44864.38;4989404;28;20941;-53
2023/05/31 07:31:27;;;;;;;8.87;3.87;;;;;;;-143.84;25.97;44879.59;4989200;28;21045;-53
2023/05/31 07:33:55;;;;;;;4.90;2.97;;;;;;;-143.84;26.17;44891.03;4989446;28;20437;-53
2023/05/31 07:36:24;;;;;;;4.97;2.80;;;;;;;-143.84;25.54;44879.59;4991440;28;20544;-53
2023/05/31 07:38:51;;;;;;;7.53;3.37;;;;;;;-143.84;24.85;44883.41;4993239;28;20460;-53
2023/05/31 07:41:19;;;;;;;5.40;3.53;;;;;;;-143.84;25.79;44891.03;4993125;28;20448;-53
2023/05/31 07:43:46;;;;;;;7.20;2.87;;;;;;;-143.84;25.51;44858.66;4993008;28;20791;-53
2023/05/31 07:46:14;;;;;;;8.50;3.33;;;;;;;-143.84;25.80;44868.19;4992680;28;20484;-53
2023/05/31 07:48:41;;;;;;;5.10;3.13;;;;;;;-143.84;25.69;44870.09;4992938;28;20970;-53
2023/05/31 07:51:09;;;;;;;6.90;2.77;;;;;;;-143.84;27.00;44871.97;4993018;28;20444;-53
2023/05/31 07:53:36;;;;;;;3.83;2.90;;;;;;;-143.84;27.66;44911.97;4993260;28;20495;-53
2023/05/31 07:56:03;;;;;;;4.37;2.17;;;;;;;-143.84;25.99;44902.44;4992497;28;20499;-53
2023/05/31 07:58:30;;;;;;;3.70;3.30;;;;;;;-143.84;27.59;44873.88;4992741;28;20508;-53
2023/05/31 08:00:58;;;;;;;5.00;3.00;;;;;;;-143.84;27.16;44908.16;4992532;28;20465;-53
2023/05/31 08:03:27;;;;;;;2.97;2.70;;;;;;;-143.84;26.88;44885.31;4992609;28;20441;-53
2023/05/31 08:05:54;;;;;;;7.63;2.80;;;;;;;-143.84;27.13;44910.06;4992204;28;20499;-53
2023/05/31 08:08:21;;;;;;;4.70;2.37;;;;;;;-143.84;26.83;44873.88;4992124;28;20583;-53
2023/05/31 08:10:48;;;;;;;4.27;3.10;;;;;;;-143.84;26.05;44849.13;4992442;28;20530;-53
2023/05/31 08:13:15;;;;;;;3.73;2.57;;;;;;;-143.84;25.46;44862.47;4992391;28;20449;-53
2023/05/31 08:15:43;;;;;;;10.53;2.80;;;;;;;-143.84;26.56;44860.56;4992471;28;20506;-53
2023/05/31 08:18:10;;;;;;;4.50;2.60;;;;;;;-143.84;26.05;44862.47;4992224;28;20438;-53
2023/05/31 08:20:38;;;;;;;4.13;2.63;;;;;;;-143.84;25.96;44871.97;4991872;28;20453;-53
2023/05/31 08:23:05;;;;;;;2.60;2.40;;;;;;;-143.84;27.14;44862.47;4992306;28;20488;-53
2023/05/31 08:25:32;;;;;;;4.20;2.83;;;;;;;-143.84;26.21;44887.22;4992125;28;20852;-53
2023/05/31 08:28:00;;;;;;;7.07;3.10;;;;;;;-143.84;26.27;44887.22;4992046;28;20496;-53
2023/05/31 08:30:27;;;;;;;5.33;2.57;;;;;;;-143.84;26.91;44839.63;4992118;28;20533;-53
2023/05/31 08:32:54;;;;;;;9.20;2.50;;;;;;;-143.84;26.03;44896.75;4992254;28;20484;-53
2023/05/31 08:35:21;;;;;;;4.17;2.67;;;;;;;-143.84;27.28;44892.94;4992100;28;20821;-53
2023/05/31 08:37:50;;;;;;;4.27;2.87;;;;;;;-143.84;27.10;44851.03;4992200;28;20508;-53
2023/05/31 08:40:17;;;;;;;8.43;2.80;;;;;;;-143.84;27.30;44833.91;4991740;28;20449;-53
2023/05/31 08:42:51;;;;;;;3.20;2.87;;;;;;;-143.84;26.51;44877.69;4991746;28;20883;-53
2023/05/31 08:45:19;;;;;;;14.63;10.30;;;;;;;-143.84;27.38;44885.31;4991687;28;20440;-51
2023/05/31 08:47:58;;;;;;;63.57;41.93;;;;;;;-143.84;26.91;44873.88;4991098;28;20489;-52
2023/05/31 08:50:27;;;;;;;4.50;3.60;;;;;;;-143.84;26.47;44891.03;4991718;28;20499;-53
2023/05/31 08:52:57;;;;;;;5.00;2.60;;;;;;;-143.84;26.54;44879.59;4991940;28;20439;-53
2023/05/31 08:55:25;;;;;;;9.87;3.17;;;;;;;-143.84;26.96;44879.59;4991487;28;20453;-53
2023/05/31 08:57:53;;;;;;;6.87;3.13;;;;;;;-143.84;25.84;44885.31;4991540;28;20499;-53
2023/05/31 09:00:22;;;;;;;4.17;2.47;;;;;;;-143.84;26.43;44896.75;4991494;28;20805;-53
2023/05/31 09:02:51;;;;;;;11.07;2.50;;;;;;;-143.84;26.80;44871.97;4991588;28;20444;-53
2023/05/31 09:05:18;;;;;;;4.30;3.40;;;;;;;-143.84;25.71;44911.97;4991389;28;20491;-53
2023/05/31 09:07:46;;;;;;;5.00;3.33;;;;;;;-143.84;27.00;44894.84;4991342;28;20520;-53
2023/05/31 09:10:15;;;;;;;6.90;3.33;;;;;;;-143.84;25.60;44887.22;4991305;28;20477;-53
2023/05/31 09:12:43;;;;;;;5.93;3.20;;;;;;;-143.84;26.58;44896.75;4991669;28;20520;-53
2023/05/31 09:15:14;;;;;;;8.73;3.10;;;;;;;-143.84;26.31;44875.78;4991488;28;20484;-54
2023/05/31 09:17:44;;;;;;;12.67;3.13;;;;;;;-143.84;26.91;44911.97;4991064;28;20484;-54
2023/05/31 09:20:11;;;;;;;5.00;2.30;;;;;;;-143.84;25.93;44892.94;4991245;28;20437;-54
2023/05/31 09:22:38;;;;;;;5.90;2.80;;;;;;;-143.84;27.48;44898.66;4991136;28;20823;-54
2023/05/31 09:25:06;;;;;;;4.17;2.70;;;;;;;-143.84;27.61;44900.53;4991655;28;20500;-54
2023/05/31 09:27:39;;;;;;;5.97;2.27;;;;;;;-143.84;28.71;44887.22;4991016;28;20481;-54
2023/05/31 09:30:09;;;;;;;4.57;2.83;;;;;;;-143.84;27.83;44891.03;4991112;28;20512;-54
2023/05/31 09:32:36;;;;;;;4.67;2.67;;;;;;;-143.84;26.49;44889.13;4990631;28;20445;-54
2023/05/31 09:35:14;;;;;;;3.13;2.87;;;;;;;-143.84;27.54;44891.03;4990783;28;20449;-54
2023/05/31 09:37:45;;;;;;;3.33;3.00;;;;;;;-143.84;27.39;44891.03;4990752;28;20452;-54
2023/05/31 09:40:14;;;;;;;5.00;2.80;;;;;;;-143.84;27.32;44889.13;4990227;28;20507;-54
2023/05/31 09:42:49;;;;;;;17.50;2.77;;;;;;;-143.84;28.14;44902.44;4990490;28;20457;-54
2023/05/31 09:45:17;;;;;;;8.47;2.83;;;;;;;-143.84;26.37;44889.13;4990524;28;20441;-54
2023/05/31 09:47:44;;;;;;;4.53;2.77;;;;;;;-143.84;26.46;44873.88;4990544;28;20491;-54
2023/05/31 09:50:12;;;;;;;5.60;2.50;;;;;;;-143.84;26.74;44875.78;4990768;28;20832;-54
2023/05/31 09:52:40;;;;;;;5.10;2.60;;;;;;;-143.84;27.90;44868.19;4990453;28;20441;-55
2023/05/31 09:55:08;;;;;;;2.33;2.13;;;;;;;-143.84;27.57;44877.69;4990414;28;20540;-54
2023/05/31 09:57:40;;;;;;;6.50;2.47;;;;;;;-143.84;27.15;44879.59;4990584;28;20954;-55
2023/05/31 10:00:16;;;;;;;5.43;2.60;;;;;;;-143.84;26.97;44873.88;4989497;28;20448;-54
2023/05/31 10:02:44;;;;;;;3.77;2.40;;;;;;;-143.84;26.38;44891.03;4990247;28;20453;-53
2023/05/31 10:05:12;;;;;;;4.70;2.50;;;;;;;-143.84;25.27;44898.66;4990172;28;20546;-54
2023/05/31 10:07:40;;;;;;;2.90;2.63;;;;;;;-143.84;26.79;44868.19;4990214;28;20488;-53
2023/05/31 10:10:09;;;;;;;2.77;2.57;;;;;;;-143.84;26.74;44885.31;4990131;28;20445;-54
2023/05/31 10:12:43;;;;;;;2.40;2.20;;;;;;;-143.84;26.44;44904.34;4989937;28;20443;-54
2023/05/31 10:15:16;;;;;;;5.10;2.10;;;;;;;-143.84;25.97;44902.44;4990202;28;20455;-54
2023/05/31 10:17:50;;;;;;;13.90;2.83;;;;;;;-143.84;25.60;44887.22;4989945;28;20461;-54
2023/05/31 10:20:18;;;;;;;3.07;2.20;;;;;;;-143.84;26.23;44894.84;4990345;28;20878;-54
2023/05/31 10:22:47;;;;;;;2.67;2.47;;;;;;;-143.84;25.67;44904.34;4989929;28;20833;-54
2023/05/31 10:25:25;;;;;;;2.40;2.20;;;;;;;-143.84;24.75;44915.78;4989836;28;20445;-54
2023/05/31 10:27:55;;;;;;;4.17;2.17;;;;;;;-143.84;25.73;44887.22;4989723;28;20492;-54
2023/05/31 10:30:28;;;;;;;2.63;2.30;;;;;;;-143.84;27.33;44915.78;4989119;28;20553;-54
2023/05/31 10:33:03;;;;;;;6.07;2.13;;;;;;;-143.84;27.37;44883.41;4989742;28;20940;-54
2023/05/31 10:35:31;;;;;;;6.63;3.03;;;;;;;-143.84;26.64;44900.53;4989751;28;20440;-54
2023/05/31 10:37:59;;;;;;;6.60;2.30;;;;;;;-143.84;27.68;44854.84;4989968;28;20445;-54
2023/05/31 10:40:33;;;;;;;4.30;2.47;;;;;;;-143.84;28.56;44892.94;4990172;28;20469;-55
2023/05/31 10:43:07;;;;;;;2.60;2.40;;;;;;;-143.84;30.73;44887.22;4989753;28;20518;-54
2023/05/31 10:45:41;;;;;;;6.80;2.13;;;;;;;-143.84;31.78;44910.06;4989673;28;20453;-54
2023/05/31 10:48:15;;;;;;;7.63;3.10;;;;;;;-143.84;33.34;44910.06;4989512;28;20488;-54
2023/05/31 10:50:56;;;;;;;3.00;2.80;;;;;;;-143.84;34.39;44913.88;4989845;28;20452;-54
2023/05/31 10:53:28;;;;;;;5.90;3.87;;;;;;;-143.84;34.57;44917.69;4989724;28;20515;-54
2023/05/31 10:56:03;;;;;;;14.23;3.30;;;;;;;-143.84;35.64;44919.59;4989669;28;20453;-54
2023/05/31 10:58:31;;;;;;;3.50;2.63;;;;;;;-143.84;34.89;44904.34;4989468;28;20532;-54
2023/05/31 11:01:06;;;;;;;6.47;3.47;;;;;;;-143.84;35.99;44953.88;4989646;28;20536;-54
2023/05/31 11:03:35;;;;;;;3.63;3.07;;;;;;;-143.84;35.39;44932.91;4989752;28;20448;-54
2023/05/31 11:06:04;;;;;;;8.83;2.97;;;;;;;-143.84;35.29;44950.06;4970339;28;20446;-54
2023/05/31 11:08:32;;;;;;;14.23;3.20;;;;;;;-143.84;35.74;44925.31;4970272;28;21066;-54
2023/05/31 11:11:29;;;;;;;5.13;3.00;;;;;;;-143.84;35.99;44925.31;4972008;28;21009;-54
2023/05/31 11:13:58;;;;;;;8.97;3.80;;;;;;;-143.84;35.59;44946.25;4973840;28;20465;-54
2023/05/31 11:16:27;;;;;;;7.20;3.47;;;;;;;-143.84;36.22;44944.34;4974223;28;20441;-54
2023/05/31 11:19:06;;;;;;;5.10;2.87;;;;;;;-143.84;34.66;44957.66;4974276;28;20464;-54
2023/05/31 11:21:50;;;;;;;3.40;2.80;;;;;;;-143.84;33.53;44971.00;4973919;28;21058;-54